createdAt,value
2023-04-18T00:00:16.104Z,9.27
2023-04-18T00:00:49.341Z,9.60
2023-04-18T00:01:21.638Z,9.07
2023-04-18T00:01:53.335Z,8.25
2023-04-18T00:02:26.110Z,9.32
2023-04-18T00:02:59.264Z,9.48
2023-04-18T00:03:33.296Z,9.60
2023-04-18T00:04:05.584Z,9.38
2023-04-18T00:04:37.622Z,9.15
2023-04-18T00:05:09.756Z,10.75
2023-04-18T00:05:41.982Z,8.48
2023-04-18T00:06:14.132Z,9.38
2023-04-18T00:06:47.215Z,8.38
2023-04-18T00:07:18.761Z,9.68
2023-04-18T00:07:51.379Z,9.32
2023-04-18T00:08:22.875Z,9.18
2023-04-18T00:08:54.391Z,9.68
2023-04-18T00:09:26.067Z,9.88
2023-04-18T00:09:57.827Z,8.98
2023-04-18T00:10:29.380Z,9.98
2023-04-18T00:11:00.912Z,9.43
2023-04-18T00:11:32.496Z,9.20
2023-04-18T00:12:04.923Z,8.82
2023-04-18T00:12:36.756Z,9.40
2023-04-18T00:13:08.277Z,8.98
2023-04-18T00:13:40.533Z,8.77
2023-04-18T00:14:12.381Z,9.15
2023-04-18T00:14:44.248Z,9.10
2023-04-18T00:15:18.958Z,9.07
2023-04-18T00:15:54.162Z,8.85
2023-04-18T00:16:25.771Z,9.27
2023-04-18T00:16:57.573Z,10.15
2023-04-18T00:17:30.340Z,9.00
2023-04-18T00:18:03.748Z,10.05
2023-04-18T00:18:36.964Z,9.88
2023-04-18T00:19:08.779Z,9.00
2023-04-18T00:19:43.306Z,9.68
2023-04-18T00:20:15.034Z,10.05
2023-04-18T00:20:46.972Z,9.20
2023-04-18T00:21:18.937Z,9.25
2023-04-18T00:21:53.157Z,9.35
2023-04-18T00:22:25.561Z,9.93
2023-04-18T00:22:57.116Z,9.50
2023-04-18T00:23:30.259Z,10.23
2023-04-18T00:24:02.054Z,9.80
2023-04-18T00:24:33.761Z,9.10
2023-04-18T00:25:05.688Z,9.32
2023-04-18T00:25:37.204Z,9.68
2023-04-18T00:26:09.166Z,9.25
2023-04-18T00:26:40.844Z,9.23
2023-04-18T00:27:13.012Z,8.65
2023-04-18T00:27:44.616Z,9.63
2023-04-18T00:28:16.183Z,8.48
2023-04-18T00:28:47.702Z,9.45
2023-04-18T00:29:19.290Z,8.30
2023-04-18T00:29:50.861Z,9.88
2023-04-18T00:30:22.454Z,8.90
2023-04-18T00:30:54.041Z,9.32
2023-04-18T00:31:26.052Z,8.68
2023-04-18T00:31:58.072Z,12.43
2023-04-18T00:32:29.684Z,9.05
2023-04-18T00:33:04.485Z,9.57
2023-04-18T00:33:36.113Z,9.02
2023-04-18T00:34:07.649Z,9.23
2023-04-18T00:34:40.429Z,8.77
2023-04-18T00:35:11.991Z,10.13
2023-04-18T00:35:43.673Z,9.68
2023-04-18T00:36:15.209Z,8.75
2023-04-18T00:36:46.732Z,9.65
2023-04-18T00:37:18.253Z,8.82
2023-04-18T00:37:49.876Z,8.45
2023-04-18T00:38:21.377Z,9.63
2023-04-18T00:38:52.996Z,8.88
2023-04-18T00:39:24.514Z,9.38
2023-04-18T00:39:56.123Z,8.38
2023-04-18T00:40:27.676Z,8.40
2023-04-18T00:40:59.263Z,9.25
2023-04-18T00:41:31.315Z,9.77
2023-04-18T00:42:04.061Z,8.88
2023-04-18T00:42:35.609Z,8.60
2023-04-18T00:43:08.087Z,9.10
2023-04-18T00:43:39.661Z,9.82
2023-04-18T00:44:11.347Z,9.13
2023-04-18T00:44:43.026Z,9.48
2023-04-18T00:45:14.727Z,10.18
2023-04-18T00:45:46.383Z,8.00
2023-04-18T00:46:18.026Z,8.70
2023-04-18T00:46:49.695Z,10.18
2023-04-18T00:47:21.333Z,9.23
2023-04-18T00:47:53.323Z,8.95
2023-04-18T00:48:24.900Z,9.15
2023-04-18T00:48:58.777Z,9.13
2023-04-18T00:49:30.835Z,10.40
2023-04-18T00:50:02.523Z,8.73
2023-04-18T00:50:34.104Z,8.90
2023-04-18T00:51:07.627Z,9.57
2023-04-18T00:51:39.968Z,8.52
2023-04-18T00:52:14.783Z,8.40
2023-04-18T00:52:47.100Z,8.13
2023-04-18T00:53:18.642Z,9.50
2023-04-18T00:53:50.740Z,8.00
2023-04-18T00:54:22.706Z,8.60
2023-04-18T00:54:54.644Z,9.23
2023-04-18T00:55:26.185Z,9.15
2023-04-18T00:55:57.900Z,9.18
2023-04-18T00:56:29.875Z,9.07
2023-04-18T00:57:02.864Z,9.27
2023-04-18T00:57:34.638Z,9.18
2023-04-18T00:58:07.616Z,8.98
2023-04-18T00:58:40.938Z,9.13
2023-04-18T00:59:13.541Z,9.30
2023-04-18T00:59:46.734Z,9.45
2023-04-18T01:00:18.492Z,8.98
2023-04-18T01:00:50.261Z,8.93
2023-04-18T01:01:22.116Z,9.25
2023-04-18T01:01:53.980Z,9.73
2023-04-18T01:02:26.460Z,9.52
2023-04-18T01:02:59.297Z,9.55
2023-04-18T01:03:32.713Z,10.25
2023-04-18T01:04:04.567Z,8.63
2023-04-18T01:04:37.302Z,10.32
2023-04-18T01:05:09.138Z,9.60
2023-04-18T01:05:42.188Z,8.70
2023-04-18T01:06:13.910Z,9.55
2023-04-18T01:06:45.745Z,8.82
2023-04-18T01:07:17.552Z,10.60
2023-04-18T01:07:49.359Z,8.57
2023-04-18T01:08:21.998Z,9.02
2023-04-18T01:08:56.455Z,9.55
2023-04-18T01:09:29.935Z,8.68
2023-04-18T01:10:02.180Z,9.55
2023-04-18T01:10:33.947Z,9.10
2023-04-18T01:11:05.668Z,9.65
2023-04-18T01:11:37.257Z,9.57
2023-04-18T01:12:08.770Z,9.68
2023-04-18T01:12:41.006Z,9.40
2023-04-18T01:13:14.297Z,9.93
2023-04-18T01:14:02.918Z,9.02
2023-04-18T01:14:34.458Z,9.10
2023-04-18T01:15:08.476Z,10.52
2023-04-18T01:15:42.717Z,9.82
2023-04-18T01:16:14.392Z,10.00
2023-04-18T01:16:46.364Z,9.95
2023-04-18T01:17:19.283Z,9.60
2023-04-18T01:17:52.427Z,9.43
2023-04-18T01:18:25.507Z,10.60
2023-04-18T01:18:57.218Z,9.25
2023-04-18T01:19:28.737Z,11.02
2023-04-18T01:20:04.957Z,9.95
2023-04-18T01:20:45.812Z,9.45
2023-04-18T01:21:18.193Z,9.80
2023-04-18T01:21:54.351Z,10.02
2023-04-18T01:22:26.887Z,9.05
2023-04-18T01:22:58.849Z,9.18
2023-04-18T01:23:30.726Z,9.73
2023-04-18T01:24:12.974Z,9.55
2023-04-18T01:24:49.276Z,10.32
2023-04-18T01:25:21.907Z,10.13
2023-04-18T01:25:53.410Z,9.90
2023-04-18T01:26:24.963Z,8.80
2023-04-18T01:26:57.238Z,9.48
2023-04-18T01:27:28.917Z,9.93
2023-04-18T01:28:00.902Z,9.93
2023-04-18T01:28:36.525Z,9.85
2023-04-18T01:29:08.103Z,9.73
2023-04-18T01:29:40.008Z,9.32
2023-04-18T01:30:11.904Z,9.40
2023-04-18T01:30:43.594Z,10.55
2023-04-18T01:31:15.338Z,8.90
2023-04-18T01:31:47.135Z,10.25
2023-04-18T01:32:21.270Z,9.80
2023-04-18T01:32:52.892Z,9.68
2023-04-18T01:33:24.550Z,9.75
2023-04-18T01:33:56.085Z,9.73
2023-04-18T01:34:27.845Z,9.32
2023-04-18T01:34:59.370Z,9.77
2023-04-18T01:35:32.992Z,10.20
2023-04-18T01:36:04.864Z,10.32
2023-04-18T01:36:38.912Z,10.95
2023-04-18T01:37:10.440Z,10.07
2023-04-18T01:37:41.976Z,9.35
2023-04-18T01:38:13.561Z,10.50
2023-04-18T01:38:45.163Z,9.65
2023-04-18T01:39:18.357Z,9.65
2023-04-18T01:39:50.426Z,9.77
2023-04-18T01:40:24.436Z,9.07
2023-04-18T01:40:56.450Z,9.73
2023-04-18T01:41:32.473Z,8.55
2023-04-18T01:42:04.547Z,9.75
2023-04-18T01:42:36.151Z,10.00
2023-04-18T01:43:07.706Z,10.93
2023-04-18T01:43:42.385Z,10.43
2023-04-18T01:44:14.562Z,10.38
2023-04-18T01:44:46.306Z,10.82
2023-04-18T01:45:19.418Z,10.52
2023-04-18T01:45:51.326Z,10.50
2023-04-18T01:46:22.953Z,10.07
2023-04-18T01:46:54.693Z,9.27
2023-04-18T01:47:26.396Z,9.00
2023-04-18T01:47:57.954Z,10.27
2023-04-18T01:48:29.563Z,10.35
2023-04-18T01:49:01.130Z,9.25
2023-04-18T01:49:32.802Z,9.35
2023-04-18T01:50:04.774Z,10.40
2023-04-18T01:50:36.304Z,9.68
2023-04-18T01:51:08.083Z,10.95
2023-04-18T01:51:39.620Z,9.77
2023-04-18T01:52:14.245Z,10.65
2023-04-18T01:52:45.924Z,10.40
2023-04-18T01:53:17.939Z,9.88
2023-04-18T01:53:49.713Z,10.75
2023-04-18T01:54:21.241Z,10.43
2023-04-18T01:54:52.842Z,10.68
2023-04-18T01:55:24.443Z,10.73
2023-04-18T01:55:57.687Z,10.50
2023-04-18T01:56:29.202Z,10.25
2023-04-18T01:57:03.428Z,10.55
2023-04-18T01:57:36.780Z,10.30
2023-04-18T01:58:08.320Z,10.02
2023-04-18T01:58:41.718Z,10.00
2023-04-18T01:59:13.335Z,10.68
2023-04-18T01:59:44.856Z,9.82
2023-04-18T02:00:16.764Z,9.93
2023-04-18T02:00:48.806Z,11.57
2023-04-18T02:01:20.529Z,9.95
2023-04-18T02:01:52.679Z,10.98
2023-04-18T02:02:24.416Z,10.73
2023-04-18T02:02:59.012Z,9.75
2023-04-18T02:03:31.149Z,10.98
2023-04-18T02:04:02.762Z,10.10
2023-04-18T02:04:34.324Z,10.25
2023-04-18T02:05:06.716Z,10.32
2023-04-18T02:05:38.385Z,10.65
2023-04-18T02:06:12.541Z,10.52
2023-04-18T02:06:44.131Z,9.88
2023-04-18T02:07:15.802Z,9.93
2023-04-18T02:07:49.263Z,11.57
2023-04-18T02:08:20.812Z,10.07
2023-04-18T02:08:52.336Z,10.82
2023-04-18T02:09:23.961Z,10.48
2023-04-18T02:09:55.581Z,10.27
2023-04-18T02:10:27.154Z,10.15
2023-04-18T02:10:59.017Z,10.10
2023-04-18T02:11:30.624Z,10.43
2023-04-18T02:12:02.728Z,10.65
2023-04-18T02:12:34.367Z,10.93
2023-04-18T02:13:06.849Z,10.63
2023-04-18T02:13:38.431Z,9.88
2023-04-18T02:14:11.925Z,10.93
2023-04-18T02:14:43.836Z,10.68
2023-04-18T02:15:15.606Z,10.98
2023-04-18T02:15:47.135Z,10.40
2023-04-18T02:16:19.786Z,10.27
2023-04-18T02:16:51.419Z,12.15
2023-04-18T02:17:23.700Z,10.18
2023-04-18T02:17:55.508Z,11.43
2023-04-18T02:18:28.382Z,10.52
2023-04-18T02:19:00.217Z,10.20
2023-04-18T02:19:31.756Z,10.95
2023-04-18T02:20:03.793Z,10.27
2023-04-18T02:20:36.346Z,10.43
2023-04-18T02:21:09.553Z,10.25
2023-04-18T02:21:41.942Z,10.38
2023-04-18T02:22:13.559Z,11.20
2023-04-18T02:22:47.877Z,10.98
2023-04-18T02:23:19.487Z,10.23
2023-04-18T02:23:52.411Z,10.68
2023-04-18T02:24:26.719Z,10.98
2023-04-18T02:24:58.239Z,10.18
2023-04-18T02:25:30.356Z,10.60
2023-04-18T02:26:01.905Z,11.18
2023-04-18T02:26:33.429Z,10.80
2023-04-18T02:27:05.256Z,11.27
2023-04-18T02:27:36.808Z,11.85
2023-04-18T02:28:08.338Z,10.88
2023-04-18T02:28:40.103Z,11.40
2023-04-18T02:29:11.829Z,9.50
2023-04-18T02:29:43.358Z,10.15
2023-04-18T02:30:15.104Z,11.55
2023-04-18T02:30:46.603Z,10.77
2023-04-18T02:31:20.976Z,9.85
2023-04-18T02:31:52.588Z,11.02
2023-04-18T02:32:24.162Z,11.52
2023-04-18T02:32:59.368Z,10.80
2023-04-18T02:33:30.975Z,10.50
2023-04-18T02:34:02.535Z,10.45
2023-04-18T02:34:34.117Z,10.23
2023-04-18T02:35:05.975Z,10.95
2023-04-18T02:35:38.109Z,10.85
2023-04-18T02:36:10.678Z,11.15
2023-04-18T02:36:43.101Z,10.18
2023-04-18T02:37:15.291Z,10.90
2023-04-18T02:37:47.041Z,11.20
2023-04-18T02:38:18.565Z,11.00
2023-04-18T02:38:50.099Z,11.07
2023-04-18T02:39:24.791Z,11.75
2023-04-18T02:39:56.947Z,11.27
2023-04-18T02:40:28.479Z,11.25
2023-04-18T02:41:00.007Z,10.85
2023-04-18T02:41:31.844Z,11.73
2023-04-18T02:42:03.473Z,10.85
2023-04-18T02:42:34.991Z,10.48
2023-04-18T02:43:06.744Z,11.00
2023-04-18T02:43:38.287Z,12.55
2023-04-18T02:44:10.027Z,11.88
2023-04-18T02:44:43.761Z,11.48
2023-04-18T02:45:15.364Z,11.38
2023-04-18T02:45:47.000Z,10.65
2023-04-18T02:46:19.319Z,11.15
2023-04-18T02:46:55.226Z,12.30
2023-04-18T02:47:27.041Z,11.77
2023-04-18T02:47:58.854Z,10.93
2023-04-18T02:48:30.527Z,11.23
2023-04-18T02:49:02.246Z,10.35
2023-04-18T02:49:33.782Z,10.23
2023-04-18T02:50:06.460Z,10.55
2023-04-18T02:50:38.538Z,10.88
2023-04-18T02:51:10.200Z,11.07
2023-04-18T02:51:42.901Z,11.23
2023-04-18T02:52:14.866Z,11.20
2023-04-18T02:52:46.506Z,11.50
2023-04-18T02:53:18.108Z,10.63
2023-04-18T02:53:58.714Z,10.57
2023-04-18T02:54:35.599Z,10.23
2023-04-18T02:55:14.522Z,10.63
2023-04-18T02:55:48.212Z,10.77
2023-04-18T02:56:21.749Z,10.90
2023-04-18T02:57:20.170Z,10.43
2023-04-18T02:58:17.707Z,9.68
2023-04-18T02:59:10.665Z,10.25
2023-04-18T02:59:59.765Z,9.80
2023-04-18T03:00:55.466Z,9.07
2023-04-18T03:01:51.158Z,8.82
2023-04-18T03:02:25.444Z,8.73
2023-04-18T03:03:01.510Z,8.95
2023-04-18T03:03:55.854Z,8.52
2023-04-18T03:04:38.384Z,9.20
2023-04-18T03:05:12.710Z,9.38
2023-04-18T03:05:44.292Z,8.40
2023-04-18T03:06:16.040Z,8.80
2023-04-18T03:06:48.334Z,9.93
2023-04-18T03:07:20.554Z,9.48
2023-04-18T03:07:54.148Z,9.70
2023-04-18T03:08:25.917Z,10.38
2023-04-18T03:08:58.890Z,10.80
2023-04-18T03:09:30.810Z,10.00
2023-04-18T03:10:07.437Z,9.48
2023-04-18T03:10:41.296Z,10.85
2023-04-18T03:11:13.244Z,8.90
2023-04-18T03:11:44.985Z,10.35
2023-04-18T03:12:16.804Z,9.75
2023-04-18T03:12:48.484Z,9.75
2023-04-18T03:13:21.806Z,10.15
2023-04-18T03:13:53.777Z,9.73
2023-04-18T03:14:27.139Z,9.18
2023-04-18T03:15:00.387Z,9.30
2023-04-18T03:15:32.544Z,8.70
2023-04-18T03:16:04.452Z,9.38
2023-04-18T03:16:36.792Z,11.15
2023-04-18T03:17:10.284Z,8.93
2023-04-18T03:17:45.698Z,9.18
2023-04-18T03:18:18.362Z,10.27
2023-04-18T03:18:50.330Z,9.75
2023-04-18T03:19:22.368Z,9.32
2023-04-18T03:19:55.821Z,9.32
2023-04-18T03:20:28.311Z,11.30
2023-04-18T03:20:59.927Z,9.10
2023-04-18T03:21:33.574Z,9.82
2023-04-18T03:22:05.998Z,10.18
2023-04-18T03:22:39.394Z,10.45
2023-04-18T03:23:11.300Z,8.70
2023-04-18T03:23:43.725Z,9.20
2023-04-18T03:24:15.923Z,8.63
2023-04-18T03:24:51.472Z,9.18
2023-04-18T03:25:24.496Z,9.95
2023-04-18T03:26:00.137Z,9.75
2023-04-18T03:26:34.986Z,11.32
2023-04-18T03:27:06.698Z,8.90
2023-04-18T03:27:39.046Z,9.00
2023-04-18T03:28:10.676Z,9.90
2023-04-18T03:28:42.277Z,9.57
2023-04-18T03:29:14.119Z,11.10
2023-04-18T03:29:48.580Z,9.52
2023-04-18T03:30:20.715Z,9.50
2023-04-18T03:30:59.095Z,10.38
2023-04-18T03:31:32.062Z,9.57
2023-04-18T03:32:03.770Z,8.88
2023-04-18T03:32:36.381Z,9.13
2023-04-18T03:33:08.684Z,10.00
2023-04-18T03:33:42.433Z,10.13
2023-04-18T03:34:15.642Z,9.43
2023-04-18T03:34:48.860Z,10.38
2023-04-18T03:35:20.817Z,9.93
2023-04-18T03:35:52.390Z,10.30
2023-04-18T03:36:25.451Z,10.07
2023-04-18T03:36:58.670Z,9.07
2023-04-18T03:37:32.233Z,9.18
2023-04-18T03:38:04.867Z,9.95
2023-04-18T03:38:41.623Z,8.57
2023-04-18T03:39:13.672Z,10.80
2023-04-18T03:39:45.544Z,9.10
2023-04-18T03:40:19.016Z,9.02
2023-04-18T03:40:52.319Z,8.68
2023-04-18T03:41:30.064Z,8.40
2023-04-18T03:42:02.586Z,10.07
2023-04-18T03:42:34.640Z,8.98
2023-04-18T03:43:06.174Z,10.23
2023-04-18T03:43:37.723Z,9.43
2023-04-18T03:44:09.343Z,8.23
2023-04-18T03:44:42.577Z,9.20
2023-04-18T03:45:14.373Z,9.15
2023-04-18T03:45:47.483Z,9.32
2023-04-18T03:46:22.027Z,9.75
2023-04-18T03:46:57.301Z,9.75
2023-04-18T03:47:31.483Z,9.38
2023-04-18T03:48:04.396Z,9.18
2023-04-18T03:48:40.072Z,9.98
2023-04-18T03:49:14.306Z,9.50
2023-04-18T03:49:46.164Z,11.02
2023-04-18T03:50:17.916Z,9.93
2023-04-18T03:50:51.111Z,10.32
2023-04-18T03:51:22.804Z,8.68
2023-04-18T03:51:54.316Z,8.25
2023-04-18T03:52:27.051Z,8.15
2023-04-18T03:53:00.741Z,9.45
2023-04-18T03:53:36.048Z,10.10
2023-04-18T03:54:07.828Z,9.13
2023-04-18T03:54:39.347Z,10.02
2023-04-18T03:55:11.474Z,9.73
2023-04-18T03:55:43.543Z,9.23
2023-04-18T03:56:17.520Z,9.75
2023-04-18T03:56:54.189Z,10.82
2023-04-18T03:57:26.335Z,9.30
2023-04-18T03:57:59.193Z,10.70
2023-04-18T03:58:33.676Z,9.93
2023-04-18T03:59:05.269Z,9.13
2023-04-18T03:59:37.083Z,9.43
2023-04-18T04:00:10.422Z,9.65
2023-04-18T04:00:47.676Z,9.80
2023-04-18T04:01:19.216Z,9.68
2023-04-18T04:01:50.784Z,9.48
2023-04-18T04:02:23.417Z,8.80
2023-04-18T04:02:55.561Z,10.43
2023-04-18T04:03:27.930Z,7.97
2023-04-18T04:04:01.741Z,10.55
2023-04-18T04:04:33.932Z,9.10
2023-04-18T04:05:05.795Z,9.38
2023-04-18T04:05:38.367Z,9.98
2023-04-18T04:06:10.338Z,10.70
2023-04-18T04:06:41.954Z,9.80
2023-04-18T04:07:13.829Z,9.85
2023-04-18T04:07:45.516Z,9.23
2023-04-18T04:08:17.886Z,10.65
2023-04-18T04:08:50.624Z,10.75
2023-04-18T04:09:26.951Z,9.48
2023-04-18T04:09:58.728Z,8.35
2023-04-18T04:10:30.316Z,9.95
2023-04-18T04:11:02.958Z,9.05
2023-04-18T04:11:34.612Z,10.68
2023-04-18T04:12:06.384Z,10.55
2023-04-18T04:12:38.549Z,8.82
2023-04-18T04:13:11.019Z,9.52
2023-04-18T04:13:44.638Z,9.45
2023-04-18T04:14:17.779Z,9.85
2023-04-18T04:14:51.110Z,9.75
2023-04-18T04:15:22.844Z,8.90
2023-04-18T04:16:05.942Z,10.95
2023-04-18T04:16:38.633Z,9.65
2023-04-18T04:17:11.187Z,9.23
2023-04-18T04:17:44.053Z,10.68
2023-04-18T04:18:16.295Z,11.05
2023-04-18T04:18:48.858Z,9.20
2023-04-18T04:19:20.807Z,10.10
2023-04-18T04:19:59.794Z,9.63
2023-04-18T04:20:33.176Z,10.63
2023-04-18T04:21:13.081Z,10.02
2023-04-18T04:21:50.609Z,10.45
2023-04-18T04:22:22.448Z,9.82
2023-04-18T04:22:55.265Z,10.57
2023-04-18T04:23:27.253Z,8.55
2023-04-18T04:23:58.832Z,9.80
2023-04-18T04:24:57.808Z,9.25
2023-04-18T04:25:35.276Z,10.48
2023-04-18T04:26:14.720Z,9.57
2023-04-18T04:27:28.104Z,9.63
2023-04-18T04:28:01.492Z,9.43
2023-04-18T04:28:33.880Z,9.90
2023-04-18T04:29:10.197Z,9.73
2023-04-18T04:29:43.789Z,9.18
2023-04-18T04:30:15.655Z,9.25
2023-04-18T04:30:47.399Z,9.32
2023-04-18T04:31:19.892Z,10.80
2023-04-18T04:31:51.942Z,10.80
2023-04-18T04:33:06.609Z,9.05
2023-04-18T04:33:39.002Z,10.45
2023-04-18T04:34:16.932Z,8.93
2023-04-18T04:34:49.485Z,10.23
2023-04-18T04:35:21.258Z,9.75
2023-04-18T04:35:52.971Z,11.68
2023-04-18T04:36:27.227Z,9.90
2023-04-18T04:37:01.419Z,10.38
2023-04-18T04:37:34.682Z,9.50
2023-04-18T04:38:16.729Z,9.95
2023-04-18T04:38:52.585Z,10.15
2023-04-18T04:39:31.386Z,11.10
2023-04-18T04:40:29.145Z,8.40
2023-04-18T04:41:09.309Z,10.10
2023-04-18T04:41:41.462Z,8.95
2023-04-18T04:42:13.657Z,8.95
2023-04-18T04:42:56.166Z,9.00
2023-04-18T04:43:34.252Z,9.68
2023-04-18T04:44:06.762Z,10.80
2023-04-18T04:44:41.575Z,10.13
2023-04-18T04:45:13.799Z,9.07
2023-04-18T04:45:45.531Z,9.43
2023-04-18T04:46:20.027Z,9.88
2023-04-18T04:46:54.518Z,9.65
2023-04-18T04:47:35.603Z,10.10
2023-04-18T04:48:11.071Z,9.65
2023-04-18T04:48:42.669Z,9.93
2023-04-18T04:49:14.290Z,9.10
2023-04-18T04:49:47.092Z,9.48
2023-04-18T04:50:18.740Z,9.05
2023-04-18T04:50:57.477Z,9.30
2023-04-18T04:51:29.073Z,10.10
2023-04-18T04:52:04.510Z,8.98
2023-04-18T04:52:36.527Z,11.13
2023-04-18T04:53:08.768Z,11.48
2023-04-18T04:53:40.511Z,10.45
2023-04-18T04:54:12.736Z,10.35
2023-04-18T04:54:45.927Z,9.73
2023-04-18T04:55:20.083Z,10.18
2023-04-18T04:55:51.862Z,10.50
2023-04-18T04:56:23.828Z,9.88
2023-04-18T04:56:55.382Z,9.38
2023-04-18T04:57:27.137Z,9.77
2023-04-18T04:57:58.932Z,9.10
2023-04-18T04:58:47.352Z,9.30
2023-04-18T04:59:24.236Z,8.98
2023-04-18T04:59:55.999Z,8.90
2023-04-18T05:00:28.841Z,7.72
2023-04-18T05:01:00.735Z,8.18
2023-04-18T05:01:32.432Z,7.85
2023-04-18T05:02:04.229Z,9.27
2023-04-18T05:02:36.077Z,8.52
2023-04-18T05:03:08.339Z,8.75
2023-04-18T05:03:40.744Z,9.38
2023-04-18T05:04:12.896Z,9.52
2023-04-18T05:04:44.736Z,9.57
2023-04-18T05:05:16.305Z,9.82
2023-04-18T05:05:50.611Z,9.00
2023-04-18T05:06:22.764Z,8.25
2023-04-18T05:06:54.365Z,9.18
2023-04-18T05:07:26.019Z,8.70
2023-04-18T05:07:57.651Z,8.15
2023-04-18T05:08:29.222Z,8.75
2023-04-18T05:09:01.198Z,9.25
2023-04-18T05:09:32.758Z,6.78
2023-04-18T05:10:04.533Z,9.30
2023-04-18T05:10:39.072Z,9.40
2023-04-18T05:11:10.592Z,8.48
2023-04-18T05:11:42.107Z,8.35
2023-04-18T05:12:13.679Z,10.57
2023-04-18T05:12:45.271Z,10.07
2023-04-18T05:13:17.159Z,9.55
2023-04-18T05:13:48.702Z,9.82
2023-04-18T05:14:20.871Z,8.13
2023-04-18T05:14:52.364Z,10.10
2023-04-18T05:15:24.720Z,7.63
2023-04-18T05:15:56.729Z,8.32
2023-04-18T05:16:28.305Z,9.63
2023-04-18T05:17:00.259Z,9.27
2023-04-18T05:17:31.928Z,10.52
2023-04-18T05:18:03.735Z,8.30
2023-04-18T05:18:39.095Z,9.23
2023-04-18T05:19:10.943Z,10.02
2023-04-18T05:19:44.266Z,7.22
2023-04-18T05:20:16.060Z,7.97
2023-04-18T05:20:47.714Z,8.10
2023-04-18T05:21:19.335Z,7.93
2023-04-18T05:21:50.988Z,7.82
2023-04-18T05:22:23.382Z,8.13
2023-04-18T05:22:54.889Z,8.43
2023-04-18T05:23:26.905Z,8.80
2023-04-18T05:23:58.459Z,6.22
2023-04-18T05:24:31.785Z,9.27
2023-04-18T05:25:03.660Z,8.05
2023-04-18T05:25:35.405Z,8.43
2023-04-18T05:26:07.238Z,9.68
2023-04-18T05:26:38.904Z,8.70
2023-04-18T05:27:10.504Z,9.00
2023-04-18T05:27:43.333Z,8.77
2023-04-18T05:28:15.195Z,8.77
2023-04-18T05:28:46.735Z,8.88
2023-04-18T05:29:18.275Z,9.27
2023-04-18T05:29:50.322Z,9.63
2023-04-18T05:30:21.982Z,8.50
2023-04-18T05:31:00.958Z,7.32
2023-04-18T05:31:32.615Z,8.05
2023-04-18T05:32:04.378Z,9.55
2023-04-18T05:32:35.992Z,7.07
2023-04-18T05:33:07.900Z,5.32
2023-04-18T05:33:39.514Z,7.97
2023-04-18T05:34:11.226Z,8.68
2023-04-18T05:34:43.008Z,8.15
2023-04-18T05:35:14.597Z,7.72
2023-04-18T05:35:46.494Z,7.65
2023-04-18T05:36:18.050Z,9.30
2023-04-18T05:36:49.605Z,8.27
2023-04-18T05:37:22.317Z,10.35
2023-04-18T05:37:53.871Z,9.00
2023-04-18T05:38:25.558Z,8.80
2023-04-18T05:38:57.077Z,9.30
2023-04-18T05:39:28.613Z,8.40
2023-04-18T05:40:00.914Z,9.75
2023-04-18T05:40:32.802Z,7.70
2023-04-18T05:41:04.422Z,8.27
2023-04-18T05:41:36.038Z,8.20
2023-04-18T05:42:07.748Z,9.68
2023-04-18T05:42:39.383Z,8.07
2023-04-18T05:43:11.137Z,8.95
2023-04-18T05:43:44.475Z,8.00
2023-04-18T05:44:21.460Z,8.77
2023-04-18T05:44:53.210Z,9.02
2023-04-18T05:45:24.754Z,8.00
2023-04-18T05:45:57.889Z,8.48
2023-04-18T05:46:32.457Z,8.23
2023-04-18T05:47:06.268Z,8.82
2023-04-18T05:47:37.923Z,9.07
2023-04-18T05:48:09.630Z,9.32
2023-04-18T05:48:41.273Z,8.75
2023-04-18T05:49:13.117Z,8.30
2023-04-18T05:49:44.771Z,7.13
2023-04-18T05:50:16.457Z,6.70
2023-04-18T05:50:48.103Z,8.50
2023-04-18T05:51:19.635Z,8.07
2023-04-18T05:51:52.824Z,7.78
2023-04-18T05:52:26.095Z,7.97
2023-04-18T05:52:59.280Z,6.88
2023-04-18T05:53:30.858Z,7.32
2023-04-18T05:54:02.556Z,8.05
2023-04-18T05:54:34.181Z,7.88
2023-04-18T05:55:06.765Z,6.30
2023-04-18T05:55:40.412Z,6.50
2023-04-18T05:56:12.051Z,6.32
2023-04-18T05:56:43.828Z,6.80
2023-04-18T05:57:15.970Z,8.48
2023-04-18T05:57:47.682Z,7.78
2023-04-18T05:58:19.252Z,7.72
2023-04-18T05:58:51.402Z,8.32
2023-04-18T05:59:23.175Z,7.53
2023-04-18T05:59:54.761Z,6.72
2023-04-18T06:00:26.915Z,7.28
2023-04-18T06:00:58.534Z,9.40
2023-04-18T06:01:30.119Z,7.57
2023-04-18T06:02:01.991Z,6.68
2023-04-18T06:02:33.695Z,6.60
2023-04-18T06:03:07.192Z,6.55
2023-04-18T06:03:41.759Z,6.95
2023-04-18T06:04:14.113Z,7.85
2023-04-18T06:04:46.325Z,6.63
2023-04-18T06:05:18.320Z,7.88
2023-04-18T06:05:50.291Z,7.18
2023-04-18T06:06:22.016Z,7.45
2023-04-18T06:06:53.687Z,7.47
2023-04-18T06:07:25.572Z,9.80
2023-04-18T06:07:57.341Z,8.13
2023-04-18T06:08:28.944Z,7.13
2023-04-18T06:09:00.987Z,6.90
2023-04-18T06:09:32.721Z,9.10
2023-04-18T06:10:07.765Z,7.28
2023-04-18T06:10:39.458Z,7.43
2023-04-18T06:11:11.061Z,6.32
2023-04-18T06:11:42.683Z,7.70
2023-04-18T06:12:14.260Z,7.95
2023-04-18T06:12:46.148Z,6.55
2023-04-18T06:13:17.832Z,5.18
2023-04-18T06:13:49.399Z,7.07
2023-04-18T06:14:20.923Z,6.95
2023-04-18T06:14:52.542Z,7.85
2023-04-18T06:15:24.379Z,7.35
2023-04-18T06:15:56.130Z,7.60
2023-04-18T06:16:27.791Z,6.53
2023-04-18T06:16:59.556Z,7.95
2023-04-18T06:17:31.347Z,6.38
2023-04-18T06:18:03.116Z,6.75
2023-04-18T06:18:34.734Z,7.53
2023-04-18T06:19:06.406Z,5.38
2023-04-18T06:19:39.521Z,6.80
2023-04-18T06:20:11.328Z,7.32
2023-04-18T06:20:43.989Z,7.07
2023-04-18T06:21:15.599Z,7.03
2023-04-18T06:21:48.443Z,7.40
2023-04-18T06:22:20.017Z,7.28
2023-04-18T06:22:51.604Z,6.82
2023-04-18T06:23:23.239Z,6.95
2023-04-18T06:23:55.099Z,7.97
2023-04-18T06:24:26.706Z,6.70
2023-04-18T06:24:58.275Z,6.95
2023-04-18T06:25:29.893Z,6.93
2023-04-18T06:26:01.448Z,6.47
2023-04-18T06:26:33.048Z,4.68
2023-04-18T06:27:05.447Z,7.68
2023-04-18T06:27:37.866Z,4.63
2023-04-18T06:28:09.693Z,6.28
2023-04-18T06:28:41.381Z,6.32
2023-04-18T06:29:13.053Z,7.97
2023-04-18T06:29:44.617Z,7.40
2023-04-18T06:30:16.230Z,7.28
2023-04-18T06:30:47.818Z,6.38
2023-04-18T06:31:19.428Z,7.15
2023-04-18T06:31:52.261Z,8.68
2023-04-18T06:32:23.965Z,7.57
2023-04-18T06:32:55.642Z,7.00
2023-04-18T06:33:27.206Z,6.80
2023-04-18T06:34:00.005Z,7.88
2023-04-18T06:34:31.634Z,6.43
2023-04-18T06:35:03.390Z,5.10
2023-04-18T06:35:34.994Z,4.93
2023-04-18T06:36:07.290Z,7.38
2023-04-18T06:36:38.986Z,7.32
2023-04-18T06:37:11.431Z,6.43
2023-04-18T06:37:44.892Z,6.70
2023-04-18T06:38:16.453Z,6.28
2023-04-18T06:38:48.027Z,6.97
2023-04-18T06:39:19.679Z,7.55
2023-04-18T06:39:51.311Z,8.85
2023-04-18T06:40:22.936Z,7.63
2023-04-18T06:40:54.463Z,8.10
2023-04-18T06:41:26.107Z,7.28
2023-04-18T06:41:58.202Z,7.05
2023-04-18T06:42:33.374Z,7.20
2023-04-18T06:43:04.929Z,6.80
2023-04-18T06:43:37.107Z,7.95
2023-04-18T06:44:08.746Z,7.65
2023-04-18T06:44:40.385Z,5.65
2023-04-18T06:45:12.171Z,6.90
2023-04-18T06:45:43.821Z,5.38
2023-04-18T06:46:16.019Z,6.75
2023-04-18T06:46:47.692Z,7.03
2023-04-18T06:47:19.358Z,6.95
2023-04-18T06:47:52.423Z,7.93
2023-04-18T06:48:24.035Z,6.70
2023-04-18T06:48:55.751Z,7.43
2023-04-18T06:49:27.304Z,6.80
2023-04-18T06:49:58.882Z,6.45
2023-04-18T06:50:30.620Z,6.70
2023-04-18T06:51:02.226Z,6.53
2023-04-18T06:51:34.205Z,6.35
2023-04-18T06:52:06.001Z,7.18
2023-04-18T06:52:40.667Z,7.00
2023-04-18T06:53:12.501Z,6.18
2023-04-18T06:53:45.944Z,6.22
2023-04-18T06:54:17.769Z,6.32
2023-04-18T06:54:49.339Z,6.03
2023-04-18T06:55:21.363Z,6.03
2023-04-18T06:55:52.935Z,6.60
2023-04-18T06:56:24.497Z,6.70
2023-04-18T06:56:56.091Z,7.40
2023-04-18T06:57:28.269Z,6.55
2023-04-18T06:58:00.488Z,6.72
2023-04-18T06:58:32.143Z,6.07
2023-04-18T06:59:03.648Z,7.43
2023-04-18T06:59:35.771Z,6.20
2023-04-18T07:00:07.832Z,5.55
2023-04-18T07:00:39.846Z,5.57
2023-04-18T07:01:11.418Z,5.47
2023-04-18T07:01:43.099Z,4.95
2023-04-18T07:02:15.430Z,5.72
2023-04-18T07:02:47.369Z,5.45
2023-04-18T07:03:19.129Z,6.78
2023-04-18T07:03:50.847Z,6.63
2023-04-18T07:04:22.679Z,5.82
2023-04-18T07:04:54.513Z,5.53
2023-04-18T07:05:26.123Z,5.20
2023-04-18T07:05:58.174Z,5.68
2023-04-18T07:06:29.862Z,6.88
2023-04-18T07:07:05.177Z,4.97
2023-04-18T07:07:36.877Z,6.13
2023-04-18T07:08:08.504Z,5.15
2023-04-18T07:08:40.081Z,5.57
2023-04-18T07:09:11.878Z,4.93
2023-04-18T07:09:43.390Z,5.25
2023-04-18T07:10:15.196Z,6.78
2023-04-18T07:10:46.785Z,6.28
2023-04-18T07:11:18.629Z,6.60
2023-04-18T07:11:52.455Z,5.68
2023-04-18T07:12:24.229Z,5.38
2023-04-18T07:12:55.846Z,5.50
2023-04-18T07:13:27.480Z,5.72
2023-04-18T07:13:59.027Z,4.60
2023-04-18T07:14:32.851Z,5.88